sensor_id;sensor_type;location;lat;lon;timestamp;P1;durP1;ratioP1;P2;durP2;ratioP2
47872;SDS011;73966;47.438;18.912;2024-01-15T00:02:39;51.47;;;35.85;;
47872;SDS011;73966;47.438;18.912;2024-01-15T00:05:09;52.78;;;35.03;;
47872;SDS011;73966;47.438;18.912;2024-01-15T00:07:38;55.10;;;33.20;;
47872;SDS011;73966;47.438;18.912;2024-01-15T00:10:08;53.60;;;34.80;;
47872;SDS011;73966;47.438;18.912;2024-01-15T00:12:37;52.62;;;32.17;;
47872;SDS011;73966;47.438;18.912;2024-01-15T00:15:08;50.10;;;31.50;;
47872;SDS011;73966;47.438;18.912;2024-01-15T00:17:38;49.50;;;33.25;;
47872;SDS011;73966;47.438;18.912;2024-01-15T00:20:08;55.08;;;33.00;;
47872;SDS011;73966;47.438;18.912;2024-01-15T00:22:37;50.08;;;32.88;;
47872;SDS011;73966;47.438;18.912;2024-01-15T00:25:06;48.97;;;30.27;;
47872;SDS011;73966;47.438;18.912;2024-01-15T00:27:36;48.17;;;28.45;;
47872;SDS011;73966;47.438;18.912;2024-01-15T00:30:05;44.85;;;29.40;;
47872;SDS011;73966;47.438;18.912;2024-01-15T00:32:38;43.28;;;31.23;;
47872;SDS011;73966;47.438;18.912;2024-01-15T00:35:07;44.65;;;29.37;;
47872;SDS011;73966;47.438;18.912;2024-01-15T00:37:37;57.97;;;35.05;;
47872;SDS011;73966;47.438;18.912;2024-01-15T00:40:07;50.12;;;34.17;;
47872;SDS011;73966;47.438;18.912;2024-01-15T00:42:37;49.85;;;30.50;;
47872;SDS011;73966;47.438;18.912;2024-01-15T00:45:06;50.90;;;34.60;;
47872;SDS011;73966;47.438;18.912;2024-01-15T00:50:14;60.50;;;38.10;;
47872;SDS011;73966;47.438;18.912;2024-01-15T00:52:43;63.72;;;39.35;;
47872;SDS011;73966;47.438;18.912;2024-01-15T00:55:12;54.47;;;34.72;;
47872;SDS011;73966;47.438;18.912;2024-01-15T00:57:41;52.00;;;33.53;;
47872;SDS011;73966;47.438;18.912;2024-01-15T01:00:11;58.40;;;33.30;;
47872;SDS011;73966;47.438;18.912;2024-01-15T01:02:41;58.65;;;33.88;;
47872;SDS011;73966;47.438;18.912;2024-01-15T01:05:12;54.28;;;34.40;;
47872;SDS011;73966;47.438;18.912;2024-01-15T01:07:42;56.00;;;37.35;;
47872;SDS011;73966;47.438;18.912;2024-01-15T01:10:11;51.85;;;34.30;;
47872;SDS011;73966;47.438;18.912;2024-01-15T01:12:40;58.10;;;36.70;;
47872;SDS011;73966;47.438;18.912;2024-01-15T01:15:10;53.08;;;35.50;;
47872;SDS011;73966;47.438;18.912;2024-01-15T01:17:40;53.83;;;35.67;;
47872;SDS011;73966;47.438;18.912;2024-01-15T01:20:09;54.40;;;36.67;;
47872;SDS011;73966;47.438;18.912;2024-01-15T01:25:12;54.42;;;34.28;;
47872;SDS011;73966;47.438;18.912;2024-01-15T01:27:41;56.63;;;37.22;;
47872;SDS011;73966;47.438;18.912;2024-01-15T01:30:11;56.50;;;38.85;;
47872;SDS011;73966;47.438;18.912;2024-01-15T01:32:40;58.05;;;38.53;;
47872;SDS011;73966;47.438;18.912;2024-01-15T01:35:09;52.30;;;37.08;;
47872;SDS011;73966;47.438;18.912;2024-01-15T01:37:39;55.05;;;37.63;;
47872;SDS011;73966;47.438;18.912;2024-01-15T01:40:10;59.22;;;37.72;;
47872;SDS011;73966;47.438;18.912;2024-01-15T01:42:39;58.40;;;36.92;;
47872;SDS011;73966;47.438;18.912;2024-01-15T01:45:09;57.50;;;38.08;;
47872;SDS011;73966;47.438;18.912;2024-01-15T01:47:39;59.72;;;36.85;;
47872;SDS011;73966;47.438;18.912;2024-01-15T01:50:09;57.28;;;40.97;;
47872;SDS011;73966;47.438;18.912;2024-01-15T01:52:39;56.88;;;39.22;;
47872;SDS011;73966;47.438;18.912;2024-01-15T01:55:11;64.50;;;40.30;;
47872;SDS011;73966;47.438;18.912;2024-01-15T01:57:41;62.08;;;38.83;;
47872;SDS011;73966;47.438;18.912;2024-01-15T02:00:18;54.88;;;36.17;;
47872;SDS011;73966;47.438;18.912;2024-01-15T02:02:47;59.55;;;40.12;;
47872;SDS011;73966;47.438;18.912;2024-01-15T02:05:18;64.97;;;38.58;;
47872;SDS011;73966;47.438;18.912;2024-01-15T02:07:50;57.40;;;38.40;;
47872;SDS011;73966;47.438;18.912;2024-01-15T02:10:20;62.78;;;39.33;;
47872;SDS011;73966;47.438;18.912;2024-01-15T02:12:50;55.50;;;37.88;;
47872;SDS011;73966;47.438;18.912;2024-01-15T02:15:20;58.87;;;37.88;;
47872;SDS011;73966;47.438;18.912;2024-01-15T02:17:58;64.30;;;39.83;;
47872;SDS011;73966;47.438;18.912;2024-01-15T02:20:29;63.40;;;41.13;;
47872;SDS011;73966;47.438;18.912;2024-01-15T02:23:09;61.00;;;42.10;;
47872;SDS011;73966;47.438;18.912;2024-01-15T02:25:41;64.12;;;41.40;;
47872;SDS011;73966;47.438;18.912;2024-01-15T02:28:13;65.20;;;42.22;;
47872;SDS011;73966;47.438;18.912;2024-01-15T02:30:43;61.03;;;41.05;;
47872;SDS011;73966;47.438;18.912;2024-01-15T02:33:13;63.90;;;42.33;;
47872;SDS011;73966;47.438;18.912;2024-01-15T02:35:43;62.65;;;43.03;;
47872;SDS011;73966;47.438;18.912;2024-01-15T02:38:18;70.50;;;44.42;;
47872;SDS011;73966;47.438;18.912;2024-01-15T02:40:49;57.62;;;39.90;;
47872;SDS011;73966;47.438;18.912;2024-01-15T02:43:19;69.12;;;44.10;;
47872;SDS011;73966;47.438;18.912;2024-01-15T02:45:49;59.80;;;43.95;;
47872;SDS011;73966;47.438;18.912;2024-01-15T02:48:18;72.07;;;41.42;;
47872;SDS011;73966;47.438;18.912;2024-01-15T02:50:48;67.00;;;41.17;;
47872;SDS011;73966;47.438;18.912;2024-01-15T02:53:19;67.15;;;42.25;;
47872;SDS011;73966;47.438;18.912;2024-01-15T02:55:48;70.78;;;42.85;;
47872;SDS011;73966;47.438;18.912;2024-01-15T03:00:50;57.30;;;38.92;;
47872;SDS011;73966;47.438;18.912;2024-01-15T03:03:20;49.63;;;34.50;;
47872;SDS011;73966;47.438;18.912;2024-01-15T03:05:50;51.70;;;34.88;;
47872;SDS011;73966;47.438;18.912;2024-01-15T03:08:21;56.17;;;36.42;;
47872;SDS011;73966;47.438;18.912;2024-01-15T03:10:50;52.72;;;35.72;;
47872;SDS011;73966;47.438;18.912;2024-01-15T03:13:19;49.08;;;32.63;;
47872;SDS011;73966;47.438;18.912;2024-01-15T03:15:51;57.65;;;37.30;;
47872;SDS011;73966;47.438;18.912;2024-01-15T03:18:21;56.97;;;38.58;;
47872;SDS011;73966;47.438;18.912;2024-01-15T03:20:50;54.78;;;39.28;;
47872;SDS011;73966;47.438;18.912;2024-01-15T03:23:21;64.62;;;41.88;;
47872;SDS011;73966;47.438;18.912;2024-01-15T03:25:51;58.28;;;38.45;;
47872;SDS011;73966;47.438;18.912;2024-01-15T03:28:20;56.95;;;35.45;;
47872;SDS011;73966;47.438;18.912;2024-01-15T03:30:49;52.45;;;36.05;;
47872;SDS011;73966;47.438;18.912;2024-01-15T03:33:18;55.67;;;38.00;;
47872;SDS011;73966;47.438;18.912;2024-01-15T03:35:48;52.85;;;35.15;;
47872;SDS011;73966;47.438;18.912;2024-01-15T03:38:17;74.15;;;43.45;;
47872;SDS011;73966;47.438;18.912;2024-01-15T03:40:48;56.25;;;37.97;;
47872;SDS011;73966;47.438;18.912;2024-01-15T03:43:17;55.50;;;36.25;;
47872;SDS011;73966;47.438;18.912;2024-01-15T03:45:47;61.28;;;35.97;;
47872;SDS011;73966;47.438;18.912;2024-01-15T03:48:16;53.78;;;36.33;;
47872;SDS011;73966;47.438;18.912;2024-01-15T03:50:50;56.63;;;36.72;;
47872;SDS011;73966;47.438;18.912;2024-01-15T03:53:19;53.65;;;34.88;;
47872;SDS011;73966;47.438;18.912;2024-01-15T03:55:50;59.92;;;37.47;;
47872;SDS011;73966;47.438;18.912;2024-01-15T03:58:20;59.03;;;37.83;;
47872;SDS011;73966;47.438;18.912;2024-01-15T04:00:49;56.20;;;38.00;;
47872;SDS011;73966;47.438;18.912;2024-01-15T04:03:26;58.08;;;38.53;;
47872;SDS011;73966;47.438;18.912;2024-01-15T04:05:56;57.38;;;36.53;;
47872;SDS011;73966;47.438;18.912;2024-01-15T04:08:26;57.78;;;36.72;;
47872;SDS011;73966;47.438;18.912;2024-01-15T04:10:56;63.17;;;38.33;;
47872;SDS011;73966;47.438;18.912;2024-01-15T04:13:25;56.67;;;37.88;;
47872;SDS011;73966;47.438;18.912;2024-01-15T04:15:55;55.75;;;37.88;;
47872;SDS011;73966;47.438;18.912;2024-01-15T04:18:25;57.72;;;39.42;;
47872;SDS011;73966;47.438;18.912;2024-01-15T04:20:54;52.38;;;36.85;;
47872;SDS011;73966;47.438;18.912;2024-01-15T04:23:23;60.15;;;39.00;;
47872;SDS011;73966;47.438;18.912;2024-01-15T04:25:52;55.85;;;37.63;;
47872;SDS011;73966;47.438;18.912;2024-01-15T04:28:23;61.05;;;39.50;;
47872;SDS011;73966;47.438;18.912;2024-01-15T04:30:52;61.15;;;36.60;;
47872;SDS011;73966;47.438;18.912;2024-01-15T04:33:22;62.60;;;41.45;;
47872;SDS011;73966;47.438;18.912;2024-01-15T04:35:52;66.22;;;43.50;;
47872;SDS011;73966;47.438;18.912;2024-01-15T04:38:21;62.83;;;41.35;;
47872;SDS011;73966;47.438;18.912;2024-01-15T04:40:51;61.08;;;41.63;;
47872;SDS011;73966;47.438;18.912;2024-01-15T04:43:25;63.38;;;41.33;;
47872;SDS011;73966;47.438;18.912;2024-01-15T04:45:55;57.45;;;40.47;;
47872;SDS011;73966;47.438;18.912;2024-01-15T04:48:24;58.60;;;39.08;;
47872;SDS011;73966;47.438;18.912;2024-01-15T04:50:53;62.60;;;39.80;;
47872;SDS011;73966;47.438;18.912;2024-01-15T04:53:23;52.35;;;37.42;;
47872;SDS011;73966;47.438;18.912;2024-01-15T04:55:52;68.55;;;41.60;;
47872;SDS011;73966;47.438;18.912;2024-01-15T04:58:22;57.20;;;39.53;;
47872;SDS011;73966;47.438;18.912;2024-01-15T05:00:55;57.47;;;39.58;;
47872;SDS011;73966;47.438;18.912;2024-01-15T05:03:24;60.22;;;43.10;;
47872;SDS011;73966;47.438;18.912;2024-01-15T05:05:54;61.80;;;43.53;;
47872;SDS011;73966;47.438;18.912;2024-01-15T05:08:24;67.60;;;42.33;;
47872;SDS011;73966;47.438;18.912;2024-01-15T05:10:53;63.85;;;41.85;;
47872;SDS011;73966;47.438;18.912;2024-01-15T05:13:22;63.38;;;40.58;;
47872;SDS011;73966;47.438;18.912;2024-01-15T05:15:51;66.30;;;42.58;;
47872;SDS011;73966;47.438;18.912;2024-01-15T05:18:23;62.60;;;42.75;;
47872;SDS011;73966;47.438;18.912;2024-01-15T05:20:51;61.33;;;41.83;;
47872;SDS011;73966;47.438;18.912;2024-01-15T05:23:20;65.62;;;41.35;;
47872;SDS011;73966;47.438;18.912;2024-01-15T05:25:50;65.70;;;43.15;;
47872;SDS011;73966;47.438;18.912;2024-01-15T05:28:19;59.10;;;38.28;;
47872;SDS011;73966;47.438;18.912;2024-01-15T05:30:48;64.57;;;43.03;;
47872;SDS011;73966;47.438;18.912;2024-01-15T05:33:23;60.10;;;43.60;;
47872;SDS011;73966;47.438;18.912;2024-01-15T05:35:53;70.20;;;44.42;;
47872;SDS011;73966;47.438;18.912;2024-01-15T05:38:22;59.03;;;41.05;;
47872;SDS011;73966;47.438;18.912;2024-01-15T05:40:51;71.07;;;45.17;;
47872;SDS011;73966;47.438;18.912;2024-01-15T05:43:24;68.30;;;43.47;;
47872;SDS011;73966;47.438;18.912;2024-01-15T05:45:53;72.55;;;45.45;;
47872;SDS011;73966;47.438;18.912;2024-01-15T05:48:25;58.13;;;42.03;;
47872;SDS011;73966;47.438;18.912;2024-01-15T05:50:54;66.75;;;45.15;;
47872;SDS011;73966;47.438;18.912;2024-01-15T05:53:23;77.30;;;45.88;;
47872;SDS011;73966;47.438;18.912;2024-01-15T05:55:52;64.90;;;45.28;;
47872;SDS011;73966;47.438;18.912;2024-01-15T05:58:21;73.20;;;46.58;;
47872;SDS011;73966;47.438;18.912;2024-01-15T06:00:51;65.50;;;46.75;;
47872;SDS011;73966;47.438;18.912;2024-01-15T06:03:20;75.80;;;49.08;;
47872;SDS011;73966;47.438;18.912;2024-01-15T06:05:51;66.57;;;46.53;;
47872;SDS011;73966;47.438;18.912;2024-01-15T06:08:20;74.15;;;45.53;;
47872;SDS011;73966;47.438;18.912;2024-01-15T06:10:50;69.05;;;43.67;;
47872;SDS011;73966;47.438;18.912;2024-01-15T06:13:18;71.37;;;46.47;;
47872;SDS011;73966;47.438;18.912;2024-01-15T06:15:48;72.57;;;47.53;;
47872;SDS011;73966;47.438;18.912;2024-01-15T06:18:17;72.85;;;47.22;;
47872;SDS011;73966;47.438;18.912;2024-01-15T06:20:46;89.25;;;49.35;;
47872;SDS011;73966;47.438;18.912;2024-01-15T06:23:17;75.30;;;44.92;;
47872;SDS011;73966;47.438;18.912;2024-01-15T06:28:17;66.62;;;46.88;;
47872;SDS011;73966;47.438;18.912;2024-01-15T06:30:46;70.18;;;46.13;;
47872;SDS011;73966;47.438;18.912;2024-01-15T06:33:15;67.75;;;48.70;;
47872;SDS011;73966;47.438;18.912;2024-01-15T06:35:45;75.00;;;48.95;;
47872;SDS011;73966;47.438;18.912;2024-01-15T06:38:15;82.30;;;52.70;;
47872;SDS011;73966;47.438;18.912;2024-01-15T06:40:45;70.25;;;48.38;;
47872;SDS011;73966;47.438;18.912;2024-01-15T06:43:20;66.82;;;47.33;;
47872;SDS011;73966;47.438;18.912;2024-01-15T06:45:49;74.53;;;50.03;;
47872;SDS011;73966;47.438;18.912;2024-01-15T06:48:19;69.97;;;46.53;;
47872;SDS011;73966;47.438;18.912;2024-01-15T06:50:48;71.07;;;45.92;;
47872;SDS011;73966;47.438;18.912;2024-01-15T06:53:20;66.68;;;48.45;;
47872;SDS011;73966;47.438;18.912;2024-01-15T06:55:49;73.32;;;45.28;;
47872;SDS011;73966;47.438;18.912;2024-01-15T06:58:19;70.07;;;49.45;;
47872;SDS011;73966;47.438;18.912;2024-01-15T07:00:53;78.53;;;53.70;;
47872;SDS011;73966;47.438;18.912;2024-01-15T07:03:23;78.60;;;48.95;;
47872;SDS011;73966;47.438;18.912;2024-01-15T07:05:52;82.80;;;51.92;;
47872;SDS011;73966;47.438;18.912;2024-01-15T07:08:28;68.28;;;48.17;;
47872;SDS011;73966;47.438;18.912;2024-01-15T07:11:03;63.75;;;48.60;;
47872;SDS011;73966;47.438;18.912;2024-01-15T07:13:34;73.28;;;45.90;;
47872;SDS011;73966;47.438;18.912;2024-01-15T07:16:05;69.70;;;46.10;;
47872;SDS011;73966;47.438;18.912;2024-01-15T07:18:35;80.43;;;53.85;;
47872;SDS011;73966;47.438;18.912;2024-01-15T07:21:27;72.82;;;48.03;;
47872;SDS011;73966;47.438;18.912;2024-01-15T07:23:58;69.35;;;49.58;;
47872;SDS011;73966;47.438;18.912;2024-01-15T07:26:29;73.18;;;49.78;;
47872;SDS011;73966;47.438;18.912;2024-01-15T07:28:59;72.43;;;48.20;;
47872;SDS011;73966;47.438;18.912;2024-01-15T07:31:36;69.28;;;44.20;;
47872;SDS011;73966;47.438;18.912;2024-01-15T07:34:05;86.35;;;47.75;;
47872;SDS011;73966;47.438;18.912;2024-01-15T07:36:35;65.37;;;42.55;;
47872;SDS011;73966;47.438;18.912;2024-01-15T07:39:06;65.37;;;44.03;;
47872;SDS011;73966;47.438;18.912;2024-01-15T07:41:36;68.18;;;46.03;;
47872;SDS011;73966;47.438;18.912;2024-01-15T07:44:06;64.00;;;42.20;;
47872;SDS011;73966;47.438;18.912;2024-01-15T07:46:36;76.37;;;46.58;;
47872;SDS011;73966;47.438;18.912;2024-01-15T07:49:07;69.93;;;44.30;;
47872;SDS011;73966;47.438;18.912;2024-01-15T07:51:37;66.10;;;43.53;;
47872;SDS011;73966;47.438;18.912;2024-01-15T07:54:10;70.78;;;47.62;;
47872;SDS011;73966;47.438;18.912;2024-01-15T07:56:55;72.27;;;47.07;;
47872;SDS011;73966;47.438;18.912;2024-01-15T07:59:25;71.87;;;43.65;;
47872;SDS011;73966;47.438;18.912;2024-01-15T08:01:54;62.22;;;40.90;;
47872;SDS011;73966;47.438;18.912;2024-01-15T08:04:24;60.72;;;39.97;;
47872;SDS011;73966;47.438;18.912;2024-01-15T08:06:54;64.12;;;40.78;;
47872;SDS011;73966;47.438;18.912;2024-01-15T08:09:28;56.15;;;38.10;;
47872;SDS011;73966;47.438;18.912;2024-01-15T08:11:58;59.60;;;38.80;;
47872;SDS011;73966;47.438;18.912;2024-01-15T08:14:27;53.75;;;36.92;;
47872;SDS011;73966;47.438;18.912;2024-01-15T08:16:57;50.00;;;35.28;;
47872;SDS011;73966;47.438;18.912;2024-01-15T08:19:27;46.88;;;31.58;;
47872;SDS011;73966;47.438;18.912;2024-01-15T08:22:02;46.95;;;31.23;;
47872;SDS011;73966;47.438;18.912;2024-01-15T08:24:43;44.97;;;30.67;;
47872;SDS011;73966;47.438;18.912;2024-01-15T08:27:13;48.85;;;31.98;;
47872;SDS011;73966;47.438;18.912;2024-01-15T08:29:49;45.10;;;32.03;;
47872;SDS011;73966;47.438;18.912;2024-01-15T08:32:22;40.65;;;28.40;;
47872;SDS011;73966;47.438;18.912;2024-01-15T08:34:51;42.00;;;30.00;;
47872;SDS011;73966;47.438;18.912;2024-01-15T08:37:21;41.00;;;29.67;;
47872;SDS011;73966;47.438;18.912;2024-01-15T08:39:51;40.08;;;29.63;;
47872;SDS011;73966;47.438;18.912;2024-01-15T08:42:21;36.50;;;27.27;;
47872;SDS011;73966;47.438;18.912;2024-01-15T08:44:51;35.75;;;26.08;;
47872;SDS011;73966;47.438;18.912;2024-01-15T08:47:23;34.08;;;26.58;;
47872;SDS011;73966;47.438;18.912;2024-01-15T08:49:53;32.28;;;24.92;;
47872;SDS011;73966;47.438;18.912;2024-01-15T08:52:22;37.10;;;25.52;;
47872;SDS011;73966;47.438;18.912;2024-01-15T08:54:53;34.50;;;26.77;;
47872;SDS011;73966;47.438;18.912;2024-01-15T08:57:26;33.47;;;25.98;;
47872;SDS011;73966;47.438;18.912;2024-01-15T08:59:57;33.92;;;25.98;;
47872;SDS011;73966;47.438;18.912;2024-01-15T09:02:31;34.03;;;25.05;;
47872;SDS011;73966;47.438;18.912;2024-01-15T09:05:07;34.00;;;25.67;;
47872;SDS011;73966;47.438;18.912;2024-01-15T09:07:37;33.53;;;24.17;;
47872;SDS011;73966;47.438;18.912;2024-01-15T09:10:08;35.08;;;24.52;;
47872;SDS011;73966;47.438;18.912;2024-01-15T09:12:41;36.28;;;26.85;;
47872;SDS011;73966;47.438;18.912;2024-01-15T09:15:10;57.65;;;36.95;;
47872;SDS011;73966;47.438;18.912;2024-01-15T09:17:41;41.25;;;28.48;;
47872;SDS011;73966;47.438;18.912;2024-01-15T09:20:11;38.87;;;28.67;;
47872;SDS011;73966;47.438;18.912;2024-01-15T09:22:46;35.38;;;24.48;;
47872;SDS011;73966;47.438;18.912;2024-01-15T09:25:17;28.25;;;22.30;;
47872;SDS011;73966;47.438;18.912;2024-01-15T09:27:46;27.92;;;21.77;;
47872;SDS011;73966;47.438;18.912;2024-01-15T09:30:16;29.70;;;22.70;;
47872;SDS011;73966;47.438;18.912;2024-01-15T09:32:45;27.13;;;20.60;;
47872;SDS011;73966;47.438;18.912;2024-01-15T09:35:15;27.10;;;20.52;;
47872;SDS011;73966;47.438;18.912;2024-01-15T09:37:44;23.95;;;18.65;;
47872;SDS011;73966;47.438;18.912;2024-01-15T09:40:16;25.12;;;19.52;;
47872;SDS011;73966;47.438;18.912;2024-01-15T09:42:49;23.12;;;19.52;;
47872;SDS011;73966;47.438;18.912;2024-01-15T09:45:19;28.70;;;18.17;;
47872;SDS011;73966;47.438;18.912;2024-01-15T09:47:49;20.75;;;16.67;;
47872;SDS011;73966;47.438;18.912;2024-01-15T09:50:19;23.20;;;17.52;;
47872;SDS011;73966;47.438;18.912;2024-01-15T09:52:48;23.98;;;17.35;;
47872;SDS011;73966;47.438;18.912;2024-01-15T09:55:20;28.85;;;17.85;;
47872;SDS011;73966;47.438;18.912;2024-01-15T09:57:49;22.83;;;17.37;;
47872;SDS011;73966;47.438;18.912;2024-01-15T10:00:19;22.48;;;15.63;;
47872;SDS011;73966;47.438;18.912;2024-01-15T10:02:50;22.13;;;16.25;;
47872;SDS011;73966;47.438;18.912;2024-01-15T10:05:22;18.65;;;11.80;;
47872;SDS011;73966;47.438;18.912;2024-01-15T10:07:58;17.05;;;12.35;;
47872;SDS011;73966;47.438;18.912;2024-01-15T10:10:30;20.45;;;13.00;;
47872;SDS011;73966;47.438;18.912;2024-01-15T10:13:00;17.42;;;11.57;;
47872;SDS011;73966;47.438;18.912;2024-01-15T10:15:35;15.45;;;11.45;;
47872;SDS011;73966;47.438;18.912;2024-01-15T10:18:12;12.80;;;10.80;;
47872;SDS011;73966;47.438;18.912;2024-01-15T10:20:42;15.02;;;11.48;;
47872;SDS011;73966;47.438;18.912;2024-01-15T10:23:11;16.65;;;11.00;;
47872;SDS011;73966;47.438;18.912;2024-01-15T10:25:42;34.97;;;21.10;;
47872;SDS011;73966;47.438;18.912;2024-01-15T10:28:13;33.22;;;21.33;;
47872;SDS011;73966;47.438;18.912;2024-01-15T10:30:42;13.77;;;10.07;;
47872;SDS011;73966;47.438;18.912;2024-01-15T10:33:11;9.88;;;7.68;;
47872;SDS011;73966;47.438;18.912;2024-01-15T10:38:13;15.90;;;11.27;;
47872;SDS011;73966;47.438;18.912;2024-01-15T10:40:43;13.93;;;8.35;;
47872;SDS011;73966;47.438;18.912;2024-01-15T10:43:13;12.70;;;8.93;;
47872;SDS011;73966;47.438;18.912;2024-01-15T10:45:42;11.88;;;8.23;;
47872;SDS011;73966;47.438;18.912;2024-01-15T10:48:13;12.32;;;8.45;;
47872;SDS011;73966;47.438;18.912;2024-01-15T10:50:42;11.00;;;7.57;;
47872;SDS011;73966;47.438;18.912;2024-01-15T10:53:13;13.55;;;8.90;;
47872;SDS011;73966;47.438;18.912;2024-01-15T10:55:46;11.05;;;8.00;;
47872;SDS011;73966;47.438;18.912;2024-01-15T11:00:47;15.40;;;10.90;;
47872;SDS011;73966;47.438;18.912;2024-01-15T11:03:23;9.80;;;7.25;;
47872;SDS011;73966;47.438;18.912;2024-01-15T11:05:53;11.15;;;8.23;;
47872;SDS011;73966;47.438;18.912;2024-01-15T11:08:23;11.60;;;7.25;;
47872;SDS011;73966;47.438;18.912;2024-01-15T11:11:05;11.27;;;7.53;;
47872;SDS011;73966;47.438;18.912;2024-01-15T11:13:41;12.18;;;7.25;;
47872;SDS011;73966;47.438;18.912;2024-01-15T11:19:05;12.02;;;8.27;;
47872;SDS011;73966;47.438;18.912;2024-01-15T11:21:40;16.30;;;7.12;;
47872;SDS011;73966;47.438;18.912;2024-01-15T11:24:32;12.25;;;7.07;;
47872;SDS011;73966;47.438;18.912;2024-01-15T11:27:08;14.57;;;7.55;;
47872;SDS011;73966;47.438;18.912;2024-01-15T11:29:38;12.10;;;8.27;;
47872;SDS011;73966;47.438;18.912;2024-01-15T11:34:57;9.10;;;7.45;;
47872;SDS011;73966;47.438;18.912;2024-01-15T11:40:38;13.30;;;8.48;;
47872;SDS011;73966;47.438;18.912;2024-01-15T11:43:12;13.38;;;7.85;;
47872;SDS011;73966;47.438;18.912;2024-01-15T11:45:46;10.93;;;7.72;;
47872;SDS011;73966;47.438;18.912;2024-01-15T11:48:21;11.32;;;7.47;;
47872;SDS011;73966;47.438;18.912;2024-01-15T11:50:55;10.93;;;7.15;;
47872;SDS011;73966;47.438;18.912;2024-01-15T11:53:27;9.88;;;7.78;;
47872;SDS011;73966;47.438;18.912;2024-01-15T11:56:05;9.73;;;6.60;;
47872;SDS011;73966;47.438;18.912;2024-01-15T11:58:45;10.93;;;5.93;;
47872;SDS011;73966;47.438;18.912;2024-01-15T12:01:19;16.12;;;7.50;;
47872;SDS011;73966;47.438;18.912;2024-01-15T12:03:49;9.07;;;5.78;;
47872;SDS011;73966;47.438;18.912;2024-01-15T12:06:25;12.90;;;6.72;;
47872;SDS011;73966;47.438;18.912;2024-01-15T12:09:05;8.23;;;5.05;;
47872;SDS011;73966;47.438;18.912;2024-01-15T12:11:38;7.28;;;5.07;;
47872;SDS011;73966;47.438;18.912;2024-01-15T12:14:20;7.68;;;4.70;;
47872;SDS011;73966;47.438;18.912;2024-01-15T12:16:58;8.40;;;5.00;;
47872;SDS011;73966;47.438;18.912;2024-01-15T12:19:35;6.82;;;4.93;;
47872;SDS011;73966;47.438;18.912;2024-01-15T12:22:15;5.87;;;4.37;;
47872;SDS011;73966;47.438;18.912;2024-01-15T12:24:44;7.80;;;4.78;;
47872;SDS011;73966;47.438;18.912;2024-01-15T12:27:14;7.60;;;5.30;;
47872;SDS011;73966;47.438;18.912;2024-01-15T12:29:45;8.13;;;5.30;;
47872;SDS011;73966;47.438;18.912;2024-01-15T12:32:14;7.57;;;5.25;;
47872;SDS011;73966;47.438;18.912;2024-01-15T12:34:44;6.25;;;5.22;;
47872;SDS011;73966;47.438;18.912;2024-01-15T12:37:13;9.15;;;5.62;;
47872;SDS011;73966;47.438;18.912;2024-01-15T12:39:43;6.62;;;5.00;;
47872;SDS011;73966;47.438;18.912;2024-01-15T12:42:13;8.32;;;4.78;;
47872;SDS011;73966;47.438;18.912;2024-01-15T12:44:46;9.52;;;6.07;;
47872;SDS011;73966;47.438;18.912;2024-01-15T12:47:15;6.90;;;4.45;;
47872;SDS011;73966;47.438;18.912;2024-01-15T12:49:46;5.97;;;4.15;;
47872;SDS011;73966;47.438;18.912;2024-01-15T12:52:18;7.45;;;4.85;;
47872;SDS011;73966;47.438;18.912;2024-01-15T12:54:51;6.90;;;5.65;;
47872;SDS011;73966;47.438;18.912;2024-01-15T12:57:21;15.30;;;5.68;;
47872;SDS011;73966;47.438;18.912;2024-01-15T12:59:53;10.90;;;5.60;;
47872;SDS011;73966;47.438;18.912;2024-01-15T13:02:22;6.50;;;5.10;;
47872;SDS011;73966;47.438;18.912;2024-01-15T13:04:53;10.10;;;5.85;;
47872;SDS011;73966;47.438;18.912;2024-01-15T13:07:24;7.47;;;5.20;;
47872;SDS011;73966;47.438;18.912;2024-01-15T13:12:31;9.05;;;5.70;;
47872;SDS011;73966;47.438;18.912;2024-01-15T13:15:08;8.95;;;5.55;;
47872;SDS011;73966;47.438;18.912;2024-01-15T13:17:51;8.98;;;5.03;;
47872;SDS011;73966;47.438;18.912;2024-01-15T13:20:20;6.78;;;4.15;;
47872;SDS011;73966;47.438;18.912;2024-01-15T13:22:50;8.07;;;4.82;;
47872;SDS011;73966;47.438;18.912;2024-01-15T13:25:19;7.55;;;5.10;;
47872;SDS011;73966;47.438;18.912;2024-01-15T13:27:50;8.45;;;5.03;;
47872;SDS011;73966;47.438;18.912;2024-01-15T13:30:21;9.82;;;5.82;;
47872;SDS011;73966;47.438;18.912;2024-01-15T13:32:50;7.35;;;5.45;;
47872;SDS011;73966;47.438;18.912;2024-01-15T13:35:21;19.40;;;8.98;;
47872;SDS011;73966;47.438;18.912;2024-01-15T13:37:51;8.70;;;5.32;;
47872;SDS011;73966;47.438;18.912;2024-01-15T13:40:20;8.18;;;5.95;;
47872;SDS011;73966;47.438;18.912;2024-01-15T13:42:49;8.25;;;6.05;;
47872;SDS011;73966;47.438;18.912;2024-01-15T13:45:22;7.55;;;5.93;;
47872;SDS011;73966;47.438;18.912;2024-01-15T13:47:52;8.70;;;6.18;;
47872;SDS011;73966;47.438;18.912;2024-01-15T13:50:22;11.25;;;6.22;;
47872;SDS011;73966;47.438;18.912;2024-01-15T13:52:53;8.40;;;5.47;;
47872;SDS011;73966;47.438;18.912;2024-01-15T13:55:22;7.93;;;5.72;;
47872;SDS011;73966;47.438;18.912;2024-01-15T13:57:52;14.48;;;5.15;;
47872;SDS011;73966;47.438;18.912;2024-01-15T14:00:23;8.70;;;5.25;;
47872;SDS011;73966;47.438;18.912;2024-01-15T14:02:54;7.53;;;5.10;;
47872;SDS011;73966;47.438;18.912;2024-01-15T14:05:24;7.55;;;5.05;;
47872;SDS011;73966;47.438;18.912;2024-01-15T14:08:00;8.05;;;4.95;;
47872;SDS011;73966;47.438;18.912;2024-01-15T14:10:31;9.90;;;5.78;;
47872;SDS011;73966;47.438;18.912;2024-01-15T14:13:01;6.95;;;5.10;;
47872;SDS011;73966;47.438;18.912;2024-01-15T14:15:32;7.62;;;5.37;;
47872;SDS011;73966;47.438;18.912;2024-01-15T14:18:02;10.13;;;5.75;;
47872;SDS011;73966;47.438;18.912;2024-01-15T14:23:10;6.80;;;4.68;;
47872;SDS011;73966;47.438;18.912;2024-01-15T14:25:39;10.43;;;5.53;;
47872;SDS011;73966;47.438;18.912;2024-01-15T14:28:09;7.32;;;5.15;;
47872;SDS011;73966;47.438;18.912;2024-01-15T14:30:40;8.43;;;5.22;;
47872;SDS011;73966;47.438;18.912;2024-01-15T14:33:10;7.22;;;4.82;;
47872;SDS011;73966;47.438;18.912;2024-01-15T14:35:40;7.80;;;5.60;;
47872;SDS011;73966;47.438;18.912;2024-01-15T14:38:13;6.82;;;5.22;;
47872;SDS011;73966;47.438;18.912;2024-01-15T14:40:43;11.30;;;6.05;;
47872;SDS011;73966;47.438;18.912;2024-01-15T14:43:13;10.98;;;5.57;;
47872;SDS011;73966;47.438;18.912;2024-01-15T14:45:44;7.82;;;5.20;;
47872;SDS011;73966;47.438;18.912;2024-01-15T14:48:14;8.90;;;5.05;;
47872;SDS011;73966;47.438;18.912;2024-01-15T14:50:45;8.27;;;5.10;;
47872;SDS011;73966;47.438;18.912;2024-01-15T14:53:15;9.32;;;5.57;;
47872;SDS011;73966;47.438;18.912;2024-01-15T14:55:46;8.30;;;4.97;;
47872;SDS011;73966;47.438;18.912;2024-01-15T14:58:18;7.07;;;4.82;;
47872;SDS011;73966;47.438;18.912;2024-01-15T15:00:49;6.85;;;4.75;;
47872;SDS011;73966;47.438;18.912;2024-01-15T15:03:25;7.18;;;5.15;;
47872;SDS011;73966;47.438;18.912;2024-01-15T15:06:02;9.77;;;7.10;;
47872;SDS011;73966;47.438;18.912;2024-01-15T15:08:31;12.00;;;7.40;;